Ce_breeze — ELSQ7 — position and weather

sailwx.info

Track history (hours):
 
Tides and Currents Weather Stations Pressure Air Temp Water Temp Dewpoint Dewpoint Depression Visibility Wind Speed Wind Dir Waves Ship Positions

Ce_breeze

Last reported at 2014-Dec-10 06:11 UTC. Time now 2014-Dec-20 02:18 UTC.
Position N 36°01' W 005°10'.
Warning: this ship's position is 9 days out of date.

Length 240 m; draft 8 m.

Type: Tanker. MMSI: 636010400.

Date/timePositionNaut miles runAvg speedWind from/ knotsBaromVisibWave heightAir tempDewpointWater temp
2014-Dec-10 06:11N 36°01' W 005°10'913.9
2014-Dec-10 05:34N 35°59' W 005°21'23211.4
2014-Dec-09 09:16N 37°24' W 009°49'1013.0
2014-Dec-09 08:31N 37°34' W 009°52'2713.1
2014-Dec-09 06:27N 38°00' W 010°00'1513.2
2014-Dec-09 05:17N 38°15' W 010°04'1013.1
2014-Dec-09 04:33N 38°25' W 010°07'1713.1
2014-Dec-09 03:14N 38°42' W 010°12'  
2014-Dec-06 18:14N 39°01' W 009°57'7 9.7
2014-Dec-06 17:30N 38°54' W 009°57'9 9.8
2014-Dec-06 16:33N 38°44' W 009°57'10 9.9
2014-Dec-06 15:33N 38°35' W 009°55'10 9.9
2014-Dec-06 14:33N 38°25' W 009°52'1310.4
2014-Dec-06 13:15N 38°12' W 009°48'810.4
2014-Dec-06 12:28N 38°04' W 009°45'1010.6
2014-Dec-06 11:31N 37°54' W 009°43'1010.6
2014-Dec-06 10:33N 37°44' W 009°40'1110.8
2014-Dec-06 09:33N 37°33' W 009°37'21610.7
2014-Dec-05 13:26N 35°58' W 005°36'910.6
2014-Dec-05 12:33N 36°01' W 005°25'7 6.4
2014-Dec-05 11:29N 36°08' W 005°23'0 0.1
2014-Dec-05 10:29N 36°08' W 005°23'0 0.1
2014-Dec-05 09:32N 36°08' W 005°23'0 0.2
2014-Dec-05 08:34N 36°08' W 005°23'0 0.1
2014-Dec-05 07:08N 36°07' W 005°23'0 0.0
2014-Dec-05 05:33N 36°08' W 005°23'0 0.1
2014-Dec-05 03:33N 36°08' W 005°23'0 0.0
2014-Dec-05 02:25N 36°08' W 005°23'0 0.2
2014-Dec-05 01:03N 36°07' W 005°23'2 4.0
2014-Dec-05 00:32N 36°05' W 005°22'8 7.8
2014-Dec-04 23:33N 36°05' W 005°12'  
2014-Dec-01 10:24N 35°54' E 014°47'9 1.8
2014-Dec-01 05:15N 35°60' E 014°38'1 0.5
2014-Dec-01 03:29N 35°59' E 014°39'9110.0
2014-Nov-30 18:20N 35°25' E 016°23'  
Track history (hours):
 
Tides and Currents Weather Stations Pressure Air Temp Water Temp Dewpoint Dewpoint Depression Visibility Wind Speed Wind Dir Waves Ship Positions

Ce_breeze

Last reported at 2014-Dec-10 06:11 UTC. Time now 2014-Dec-20 02:18 UTC.
Position N 36°01' W 005°10'.
Warning: this ship's position is 9 days out of date.

Length 240 m; draft 8 m.

Type: Tanker. MMSI: 636010400.

Date/timePositionNaut miles runAvg speedWind from/ knotsBaromVisibWave heightAir tempDewpointWater temp
2014-Dec-10 06:11N 36°01' W 005°10'913.9
2014-Dec-10 05:34N 35°59' W 005°21'23211.4
2014-Dec-09 09:16N 37°24' W 009°49'1013.0
2014-Dec-09 08:31N 37°34' W 009°52'2713.1
2014-Dec-09 06:27N 38°00' W 010°00'1513.2
2014-Dec-09 05:17N 38°15' W 010°04'1013.1
2014-Dec-09 04:33N 38°25' W 010°07'1713.1
2014-Dec-09 03:14N 38°42' W 010°12'  
2014-Dec-06 18:14N 39°01' W 009°57'7 9.7
2014-Dec-06 17:30N 38°54' W 009°57'9 9.8
2014-Dec-06 16:33N 38°44' W 009°57'10 9.9
2014-Dec-06 15:33N 38°35' W 009°55'10 9.9
2014-Dec-06 14:33N 38°25' W 009°52'1310.4
2014-Dec-06 13:15N 38°12' W 009°48'810.4
2014-Dec-06 12:28N 38°04' W 009°45'1010.6
2014-Dec-06 11:31N 37°54' W 009°43'1010.6
2014-Dec-06 10:33N 37°44' W 009°40'1110.8
2014-Dec-06 09:33N 37°33' W 009°37'21610.7
2014-Dec-05 13:26N 35°58' W 005°36'910.6
2014-Dec-05 12:33N 36°01' W 005°25'7 6.4
2014-Dec-05 11:29N 36°08' W 005°23'0 0.1
2014-Dec-05 10:29N 36°08' W 005°23'0 0.1
2014-Dec-05 09:32N 36°08' W 005°23'0 0.2
2014-Dec-05 08:34N 36°08' W 005°23'0 0.1
2014-Dec-05 07:08N 36°07' W 005°23'0 0.0
2014-Dec-05 05:33N 36°08' W 005°23'0 0.1
2014-Dec-05 03:33N 36°08' W 005°23'0 0.0
2014-Dec-05 02:25N 36°08' W 005°23'0 0.2
2014-Dec-05 01:03N 36°07' W 005°23'2 4.0
2014-Dec-05 00:32N 36°05' W 005°22'8 7.8
2014-Dec-04 23:33N 36°05' W 005°12'  
2014-Dec-01 10:24N 35°54' E 014°47'9 1.8
2014-Dec-01 05:15N 35°60' E 014°38'1 0.5
2014-Dec-01 03:29N 35°59' E 014°39'9110.0
2014-Nov-30 18:20N 35°25' E 016°23'  

Dump ship's entire track history